Time;durP1;ratioP1;P1;durP2;ratioP2;P2;SDS_P1;SDS_P2;PMS_P1;PMS_P2;Temp;Humidity;BMP_temperature;BMP_pressure;BME280_temperature;BME280_humidity;BME280_pressure;Samples;Min_cycle;Max_cycle;Signal;HPM_P1;HPM_P2
2024/01/27 00:01:32;;;;;;;15.48;4.60;;;2.20;99.90;;;;;;5012291;28;20084;-66
2024/01/27 00:03:58;;;;;;;18.67;5.35;;;2.20;99.90;;;;;;5010577;28;20030;-65
2024/01/27 00:06:24;;;;;;;13.73;4.85;;;2.30;99.90;;;;;;5011633;28;20034;-65
2024/01/27 00:08:50;;;;;;;13.93;5.22;;;2.20;99.90;;;;;;5007713;28;20507;-69
2024/01/27 00:11:16;;;;;;;17.35;5.53;;;2.20;99.90;;;;;;5009491;28;20057;-65
2024/01/27 00:13:41;;;;;;;13.25;5.88;;;2.20;99.90;;;;;;5010883;28;20041;-65
2024/01/27 00:16:08;;;;;;;10.38;4.82;;;2.20;99.90;;;;;;5010577;28;20046;-66
2024/01/27 00:18:37;;;;;;;15.60;5.35;;;2.10;99.90;;;;;;5003971;28;20034;-65
2024/01/27 00:21:03;;;;;;;17.73;6.07;;;2.00;99.90;;;;;;4999878;28;20037;-65
2024/01/27 00:23:28;;;;;;;15.43;6.30;;;2.00;99.90;;;;;;5010140;28;20030;-65
2024/01/27 00:25:54;;;;;;;14.88;5.82;;;2.00;99.90;;;;;;5010192;28;20034;-65
2024/01/27 00:28:20;;;;;;;15.18;6.30;;;2.10;99.90;;;;;;5011130;28;20706;-65
2024/01/27 00:30:45;;;;;;;21.05;5.95;;;2.10;99.90;;;;;;5010853;28;20033;-67
2024/01/27 00:33:11;;;;;;;19.17;5.15;;;2.20;99.90;;;;;;4992386;28;20871;-65
2024/01/27 00:35:36;;;;;;;13.27;5.68;;;2.10;99.90;;;;;;5007692;28;20025;-65
2024/01/27 00:38:02;;;;;;;13.27;5.32;;;2.20;99.90;;;;;;5010047;28;20518;-65
2024/01/27 00:40:28;;;;;;;14.25;5.25;;;2.20;99.90;;;;;;5005263;28;20042;-65
2024/01/27 00:42:54;;;;;;;19.83;5.28;;;2.20;99.90;;;;;;4995248;28;20030;-65
2024/01/27 00:45:22;;;;;;;11.05;5.30;;;2.20;99.90;;;;;;5011310;28;20046;-65
2024/01/27 00:47:51;;;;;;;15.02;5.03;;;2.20;99.90;;;;;;5000289;28;20070;-68
2024/01/27 00:50:17;;;;;;;14.35;5.30;;;2.10;99.90;;;;;;4999276;28;20046;-65
2024/01/27 00:52:42;;;;;;;16.35;5.47;;;2.10;99.90;;;;;;5009915;28;20026;-65
2024/01/27 00:55:08;;;;;;;13.40;5.45;;;2.00;99.90;;;;;;5008809;28;20030;-65
2024/01/27 00:57:37;;;;;;;13.88;5.05;;;2.00;99.90;;;;;;4991594;28;20121;-65
2024/01/27 01:00:03;;;;;;;15.68;5.20;;;2.00;99.90;;;;;;4989521;28;20463;-65
2024/01/27 01:02:29;;;;;;;13.32;4.93;;;1.90;99.90;;;;;;4993804;28;20091;-64
2024/01/27 01:04:55;;;;;;;14.75;5.25;;;1.90;99.90;;;;;;5004088;28;20042;-65
2024/01/27 01:07:20;;;;;;;12.30;4.82;;;2.00;99.90;;;;;;4992262;28;20034;-67
2024/01/27 01:09:46;;;;;;;14.57;5.13;;;2.00;99.90;;;;;;4999141;28;20042;-67
2024/01/27 01:12:11;;;;;;;14.27;4.78;;;2.00;99.90;;;;;;5002771;28;20257;-66
2024/01/27 01:14:37;;;;;;;17.35;6.40;;;2.10;99.90;;;;;;5001284;28;20126;-65
2024/01/27 01:17:04;;;;;;;15.27;4.82;;;2.10;99.90;;;;;;5006398;28;20515;-66
2024/01/27 01:19:30;;;;;;;12.85;5.38;;;2.10;99.90;;;;;;5006558;28;20025;-65
2024/01/27 01:21:56;;;;;;;12.45;4.60;;;2.10;99.90;;;;;;5010036;28;20060;-66
2024/01/27 01:24:21;;;;;;;14.07;5.05;;;2.00;99.90;;;;;;5008043;28;20800;-66
2024/01/27 01:26:47;;;;;;;12.57;4.45;;;2.00;99.90;;;;;;5010663;28;20030;-66
2024/01/27 01:29:12;;;;;;;11.63;4.32;;;2.00;99.90;;;;;;5008079;28;20029;-65
2024/01/27 01:31:41;;;;;;;16.60;5.95;;;2.00;99.90;;;;;;5002088;28;20073;-65
2024/01/27 01:34:06;;;;;;;13.60;5.55;;;2.00;99.90;;;;;;4994185;28;20040;-65
2024/01/27 01:36:32;;;;;;;19.92;5.88;;;2.00;99.90;;;;;;5010542;28;20390;-67
2024/01/27 01:38:57;;;;;;;17.50;5.47;;;2.00;99.90;;;;;;5005432;28;20030;-66
2024/01/27 01:41:23;;;;;;;17.10;4.95;;;2.00;99.90;;;;;;4998051;28;20144;-67
2024/01/27 01:43:49;;;;;;;17.83;6.20;;;2.00;99.90;;;;;;5003317;28;20046;-65
2024/01/27 01:46:14;;;;;;;14.50;5.32;;;2.00;99.90;;;;;;4996784;28;20286;-66
2024/01/27 01:48:40;;;;;;;21.38;5.65;;;2.00;99.90;;;;;;5009619;28;20509;-65
2024/01/27 01:51:06;;;;;;;15.52;5.07;;;2.00;99.90;;;;;;4999086;28;20030;-66
2024/01/27 01:53:32;;;;;;;13.65;5.15;;;2.00;99.90;;;;;;5007194;28;20030;-66
2024/01/27 01:55:58;;;;;;;15.65;5.20;;;2.00;99.90;;;;;;5005008;28;20431;-65
2024/01/27 01:58:23;;;;;;;11.65;5.28;;;2.00;99.90;;;;;;5007992;28;20108;-65
2024/01/27 02:00:49;;;;;;;16.15;5.90;;;2.00;99.90;;;;;;5008993;28;20156;-65
2024/01/27 02:03:15;;;;;;;14.95;5.63;;;2.00;99.90;;;;;;4999550;28;20022;-66
2024/01/27 02:05:40;;;;;;;10.90;5.32;;;1.90;99.90;;;;;;5017004;28;20042;-67
2024/01/27 02:08:06;;;;;;;14.70;4.85;;;1.80;99.90;;;;;;5018976;28;20093;-66
2024/01/27 02:10:36;;;;;;;15.40;5.03;;;1.80;99.90;;;;;;5005700;28;20029;-65
2024/01/27 02:13:18;;;;;;;17.27;5.40;;;1.80;99.90;;;;;;5008184;28;20046;-65
2024/01/27 02:15:44;;;;;;;13.93;5.40;;;1.80;99.90;;;;;;5008768;28;20450;-65
2024/01/27 02:18:09;;;;;;;10.85;4.85;;;1.70;99.90;;;;;;5005239;28;20070;-66
2024/01/27 02:20:35;;;;;;;16.13;5.28;;;1.60;99.90;;;;;;5006937;28;20042;-65
2024/01/27 02:23:04;;;;;;;17.40;5.75;;;1.60;99.90;;;;;;5008111;28;20033;-66
2024/01/27 02:25:33;;;;;;;17.67;5.97;;;1.70;99.90;;;;;;5008285;28;20097;-65
2024/01/27 02:27:59;;;;;;;21.55;5.90;;;1.70;99.90;;;;;;5008167;28;20041;-68
2024/01/27 02:30:24;;;;;;;17.08;5.38;;;1.70;99.90;;;;;;5004842;28;20387;-66
2024/01/27 02:32:51;;;;;;;13.65;5.28;;;1.70;99.90;;;;;;4998396;28;20026;-66
2024/01/27 02:35:17;;;;;;;15.52;5.68;;;1.60;99.90;;;;;;5003514;28;20026;-65
2024/01/27 02:37:42;;;;;;;18.35;5.88;;;1.60;99.90;;;;;;5008712;28;20136;-66
2024/01/27 02:40:12;;;;;;;13.95;5.65;;;1.60;99.90;;;;;;5008582;28;20382;-65
2024/01/27 02:42:37;;;;;;;15.88;6.38;;;1.60;99.90;;;;;;5009345;28;20042;-66
2024/01/27 02:45:04;;;;;;;17.67;5.32;;;1.50;99.90;;;;;;5007435;28;20390;-66
2024/01/27 02:47:30;;;;;;;14.30;5.57;;;1.30;99.90;;;;;;5008699;28;20445;-65
2024/01/27 02:49:55;;;;;;;16.10;5.78;;;1.10;99.90;;;;;;5008179;28;20061;-69
2024/01/27 02:52:21;;;;;;;14.13;5.50;;;1.00;99.90;;;;;;5002321;28;20073;-66
2024/01/27 02:54:48;;;;;;;16.63;6.57;;;0.90;99.90;;;;;;5003641;28;20037;-66
2024/01/27 02:57:15;;;;;;;15.35;6.28;;;0.80;99.90;;;;;;5003413;28;20036;-65
2024/01/27 02:59:41;;;;;;;14.18;5.78;;;0.70;99.90;;;;;;5007387;28;20068;-66
2024/01/27 03:02:06;;;;;;;16.48;5.65;;;0.60;99.90;;;;;;5008480;28;20061;-66
2024/01/27 03:04:32;;;;;;;18.40;5.95;;;0.70;99.90;;;;;;4993824;28;20085;-65
2024/01/27 03:06:58;;;;;;;14.73;6.22;;;0.80;99.90;;;;;;4989027;28;20034;-69
2024/01/27 03:09:23;;;;;;;15.90;6.40;;;1.00;99.90;;;;;;4991727;28;20454;-65
2024/01/27 03:11:49;;;;;;;16.70;6.47;;;0.90;99.90;;;;;;4990272;28;20467;-65
2024/01/27 03:14:15;;;;;;;15.23;6.22;;;0.80;99.90;;;;;;4988109;28;20034;-66
2024/01/27 03:16:42;;;;;;;16.05;5.95;;;0.70;99.90;;;;;;5006890;28;20073;-66
2024/01/27 03:19:07;;;;;;;16.02;6.43;;;0.70;99.90;;;;;;5007757;28;20046;-66
2024/01/27 03:21:33;;;;;;;15.73;6.00;;;0.60;99.90;;;;;;5007318;28;20030;-65
2024/01/27 03:23:59;;;;;;;12.68;5.93;;;0.50;99.90;;;;;;5007795;28;20026;-68
2024/01/27 03:26:24;;;;;;;14.68;5.50;;;0.50;99.90;;;;;;5006956;28;20486;-65
2024/01/27 03:28:50;;;;;;;17.30;5.85;;;0.50;99.90;;;;;;5008730;28;20038;-65
2024/01/27 03:31:16;;;;;;;17.30;5.90;;;0.60;99.90;;;;;;5006969;28;20073;-65
2024/01/27 03:33:42;;;;;;;17.40;6.15;;;0.70;99.90;;;;;;5008816;28;20493;-65
2024/01/27 03:36:12;;;;;;;16.10;6.10;;;0.80;99.90;;;;;;5006625;28;20113;-64
2024/01/27 03:38:39;;;;;;;15.70;6.13;;;0.90;99.90;;;;;;4989499;28;20502;-64
2024/01/27 03:41:05;;;;;;;18.35;5.97;;;0.90;99.90;;;;;;5003616;28;20038;-64
2024/01/27 03:43:31;;;;;;;18.00;6.25;;;1.00;99.90;;;;;;5008117;28;20115;-66
2024/01/27 03:46:00;;;;;;;13.13;5.95;;;0.80;99.90;;;;;;5008488;28;20045;-65
2024/01/27 03:48:25;;;;;;;13.68;6.20;;;0.70;99.90;;;;;;5007635;28;20029;-65
2024/01/27 03:50:51;;;;;;;15.55;5.93;;;0.50;99.90;;;;;;4995183;28;20493;-65
2024/01/27 03:53:17;;;;;;;16.25;5.72;;;0.40;99.90;;;;;;5007433;28;20446;-67
2024/01/27 03:55:43;;;;;;;19.08;6.15;;;0.30;99.90;;;;;;5008320;28;20068;-65
2024/01/27 03:58:08;;;;;;;16.67;5.45;;;0.30;99.90;;;;;;5006602;28;20030;-65
2024/01/27 04:00:34;;;;;;;14.80;5.40;;;0.20;99.90;;;;;;5007670;28;20033;-67
2024/01/27 04:03:00;;;;;;;18.45;6.03;;;0.20;99.90;;;;;;5006322;28;20484;-68
2024/01/27 04:05:26;;;;;;;17.58;6.15;;;0.20;99.90;;;;;;5004562;28;20601;-65
2024/01/27 04:07:52;;;;;;;18.52;6.15;;;0.30;99.90;;;;;;5002204;28;20121;-64
2024/01/27 04:10:19;;;;;;;17.52;6.30;;;0.30;99.90;;;;;;5000681;28;20113;-65
2024/01/27 04:12:44;;;;;;;17.40;6.50;;;0.40;99.90;;;;;;4999000;28;20542;-65
2024/01/27 04:15:10;;;;;;;19.35;5.72;;;0.40;99.90;;;;;;4988385;28;20084;-65
2024/01/27 04:17:37;;;;;;;20.58;7.45;;;0.50;99.90;;;;;;5006008;28;20038;-66
2024/01/27 04:20:04;;;;;;;17.25;6.82;;;0.50;99.90;;;;;;4994417;28;20033;-68
2024/01/27 04:22:30;;;;;;;15.93;6.03;;;0.50;99.90;;;;;;5000587;28;20037;-64
2024/01/27 04:24:55;;;;;;;16.02;6.70;;;0.60;99.90;;;;;;5002056;28;20057;-64
2024/01/27 04:27:21;;;;;;;20.90;6.78;;;0.70;99.90;;;;;;4987788;28;20108;-65
2024/01/27 04:29:48;;;;;;;19.55;6.38;;;0.70;99.90;;;;;;4994130;28;20026;-65
2024/01/27 04:32:13;;;;;;;17.17;6.45;;;0.70;99.90;;;;;;4991959;28;20053;-66
2024/01/27 04:34:39;;;;;;;24.13;6.47;;;0.60;99.90;;;;;;5009459;28;20037;-64
2024/01/27 04:37:05;;;;;;;16.73;5.80;;;0.50;99.90;;;;;;5010195;28;20109;-69
2024/01/27 04:39:31;;;;;;;22.08;6.75;;;0.50;99.90;;;;;;5009672;28;20385;-65
2024/01/27 04:41:56;;;;;;;15.55;6.07;;;0.40;99.90;;;;;;4991979;28;20041;-65
2024/01/27 04:44:22;;;;;;;17.88;5.82;;;0.20;99.90;;;;;;4990526;28;20065;-65
2024/01/27 04:46:48;;;;;;;13.45;5.88;;;0.10;99.90;;;;;;5010280;28;20104;-64
2024/01/27 04:49:15;;;;;;;16.45;5.95;;;0.00;99.90;;;;;;5010503;28;20026;-65
2024/01/27 04:51:41;;;;;;;15.57;6.63;;;0.00;99.90;;;;;;5003621;28;20459;-67
2024/01/27 04:54:07;;;;;;;19.88;7.05;;;0.00;99.90;;;;;;5010274;28;20036;-69
2024/01/27 04:56:33;;;;;;;14.95;6.68;;;0.00;99.90;;;;;;5011153;28;20045;-65
2024/01/27 04:58:58;;;;;;;14.00;6.50;;;0.20;99.90;;;;;;5010983;28;20030;-65
2024/01/27 05:01:24;;;;;;;19.42;7.03;;;0.10;99.90;;;;;;4993419;28;20288;-64
2024/01/27 05:03:49;;;;;;;21.38;6.65;;;0.00;99.90;;;;;;4993461;28;20030;-65
2024/01/27 05:06:16;;;;;;;19.98;6.60;;;-0.10;99.90;;;;;;5008469;28;20042;-65
2024/01/27 05:08:41;;;;;;;12.63;5.68;;;-0.20;99.90;;;;;;5011112;28;20109;-64
2024/01/27 05:11:07;;;;;;;16.17;5.70;;;-0.30;99.90;;;;;;4996463;28;20113;-68
2024/01/27 05:13:33;;;;;;;15.82;6.05;;;-0.30;99.90;;;;;;4991132;28;20531;-65
2024/01/27 05:15:58;;;;;;;16.42;5.63;;;-0.40;99.90;;;;;;4991444;28;20124;-65
2024/01/27 05:18:24;;;;;;;13.57;5.45;;;-0.40;99.90;;;;;;4992267;28;20706;-65
2024/01/27 05:20:49;;;;;;;14.32;5.95;;;-0.40;99.90;;;;;;5009127;28;20492;-66
2024/01/27 05:23:15;;;;;;;12.07;5.50;;;-0.40;99.90;;;;;;5009430;28;20128;-64
2024/01/27 05:25:41;;;;;;;12.40;5.57;;;-0.40;99.90;;;;;;5008041;28;20044;-68
2024/01/27 05:28:07;;;;;;;12.07;5.78;;;-0.40;99.90;;;;;;5010123;28;20407;-66
2024/01/27 05:30:33;;;;;;;19.05;6.95;;;-0.40;99.90;;;;;;5004999;28;20030;-65
2024/01/27 05:32:58;;;;;;;17.25;5.97;;;-0.30;99.90;;;;;;4998605;28;20501;-65
2024/01/27 05:35:24;;;;;;;15.38;5.40;;;-0.30;99.90;;;;;;5008065;28;20040;-65
2024/01/27 05:37:51;;;;;;;19.25;5.50;;;-0.30;99.90;;;;;;5006335;28;20434;-66
2024/01/27 05:40:17;;;;;;;13.68;5.30;;;-0.30;99.90;;;;;;5004035;28;20038;-65
2024/01/27 05:42:44;;;;;;;17.80;6.05;;;-0.30;99.90;;;;;;5010425;28;20390;-65
2024/01/27 05:45:10;;;;;;;20.25;5.90;;;-0.30;99.90;;;;;;5008509;28;20660;-67
2024/01/27 05:47:36;;;;;;;21.33;6.35;;;-0.30;99.90;;;;;;5006398;28;20057;-64
2024/01/27 05:50:03;;;;;;;17.77;6.35;;;-0.40;99.90;;;;;;5009895;28;20030;-64
2024/01/27 05:52:28;;;;;;;22.23;7.45;;;-0.30;99.90;;;;;;5007754;28;20030;-65
2024/01/27 05:54:54;;;;;;;21.98;7.70;;;-0.20;99.90;;;;;;5009679;28;20036;-65
2024/01/27 05:57:20;;;;;;;19.85;6.82;;;-0.10;99.90;;;;;;5008987;28;20029;-65
2024/01/27 05:59:46;;;;;;;17.60;6.47;;;-0.10;99.90;;;;;;5011555;28;20037;-65
2024/01/27 06:02:12;;;;;;;20.52;7.43;;;-0.10;99.90;;;;;;5009124;28;20150;-66
2024/01/27 06:04:37;;;;;;;13.48;6.13;;;-0.10;99.90;;;;;;5009196;28;20060;-65
2024/01/27 06:07:03;;;;;;;15.38;5.93;;;-0.20;99.90;;;;;;5008462;28;20065;-65
2024/01/27 06:09:29;;;;;;;14.68;6.80;;;-0.20;99.90;;;;;;5024009;28;20033;-65
2024/01/27 06:11:54;;;;;;;16.05;6.68;;;-0.20;99.90;;;;;;5009668;28;20034;-65
2024/01/27 06:14:20;;;;;;;18.73;6.97;;;-0.20;99.90;;;;;;5008528;28;20451;-65
2024/01/27 06:16:46;;;;;;;17.27;6.72;;;-0.20;99.90;;;;;;5008863;28;20044;-65
2024/01/27 06:19:11;;;;;;;14.68;6.50;;;-0.30;99.90;;;;;;5008427;28;20121;-69
2024/01/27 06:21:37;;;;;;;19.70;7.00;;;-0.30;99.90;;;;;;5008352;28;20537;-65
2024/01/27 06:24:03;;;;;;;19.50;7.53;;;-0.40;99.90;;;;;;5009526;28;20026;-65
2024/01/27 06:26:28;;;;;;;19.38;6.72;;;-0.50;99.90;;;;;;5007726;28;20065;-64
2024/01/27 06:28:54;;;;;;;18.08;6.75;;;-0.50;99.90;;;;;;5008616;28;20053;-64
2024/01/27 06:31:19;;;;;;;20.80;7.03;;;-0.40;99.90;;;;;;5007584;28;20029;-65
2024/01/27 06:33:45;;;;;;;20.98;7.50;;;-0.50;99.90;;;;;;5005012;28;20475;-65
2024/01/27 06:36:11;;;;;;;22.23;7.50;;;-0.50;99.90;;;;;;5008294;28;20057;-69
2024/01/27 06:38:39;;;;;;;19.95;7.40;;;-0.60;99.90;;;;;;5008971;28;20061;-65
2024/01/27 06:41:05;;;;;;;21.85;7.85;;;-0.60;99.90;;;;;;5005755;28;20038;-65
2024/01/27 06:43:30;;;;;;;20.83;8.02;;;-0.60;99.90;;;;;;5007667;28;20028;-66
2024/01/27 06:45:57;;;;;;;21.88;7.97;;;-0.60;99.90;;;;;;5007850;28;20046;-65
2024/01/27 06:48:25;;;;;;;20.27;8.52;;;-0.70;99.90;;;;;;5007668;28;20141;-64
2024/01/27 06:50:51;;;;;;;23.10;9.05;;;-0.70;99.90;;;;;;5013794;28;20032;-63
2024/01/27 06:53:18;;;;;;;26.67;9.38;;;-0.70;99.90;;;;;;5028337;28;20781;-64
2024/01/27 06:55:44;;;;;;;25.00;8.45;;;-0.70;99.90;;;;;;5009879;28;20109;-62
2024/01/27 06:58:10;;;;;;;22.70;8.48;;;-0.70;99.90;;;;;;5006892;28;20132;-67
2024/01/27 07:00:35;;;;;;;25.00;8.82;;;-0.70;99.90;;;;;;5007517;28;20084;-65
2024/01/27 07:03:02;;;;;;;21.15;8.13;;;-0.70;99.90;;;;;;5006937;28;20034;-66
2024/01/27 07:05:28;;;;;;;18.90;8.40;;;-0.80;99.90;;;;;;5007048;28;20038;-65
2024/01/27 07:07:53;;;;;;;20.45;8.30;;;-0.80;99.90;;;;;;5007990;28;20034;-65
2024/01/27 07:10:19;;;;;;;22.60;8.55;;;-0.80;99.90;;;;;;5008258;28;20033;-62
2024/01/27 07:12:45;;;;;;;23.17;7.90;;;-0.90;99.90;;;;;;5008804;28;20030;-65
2024/01/27 07:15:10;;;;;;;25.15;8.48;;;-0.80;99.90;;;;;;5009240;28;20036;-65
2024/01/27 07:17:36;;;;;;;23.77;8.43;;;-0.80;99.90;;;;;;5007347;28;20092;-65
2024/01/27 07:20:02;;;;;;;24.30;9.07;;;-0.80;99.90;;;;;;5009056;28;20038;-65
2024/01/27 07:22:28;;;;;;;22.10;8.35;;;-0.80;99.90;;;;;;5007855;28;20116;-67
2024/01/27 07:24:53;;;;;;;24.08;8.18;;;-0.80;99.90;;;;;;5009566;28;20034;-66
2024/01/27 07:27:19;;;;;;;28.92;9.07;;;-0.70;99.90;;;;;;5000308;28;20046;-63
2024/01/27 07:29:45;;;;;;;22.08;8.82;;;-0.70;99.90;;;;;;4993391;28;20034;-65
2024/01/27 07:32:13;;;;;;;22.23;7.82;;;-0.70;99.90;;;;;;4991689;28;20030;-66
2024/01/27 07:34:45;;;;;;;27.65;9.70;;;-0.60;99.90;;;;;;4996259;28;20046;-65
2024/01/27 07:37:11;;;;;;;19.08;7.97;;;-0.60;99.90;;;;;;5000906;28;20482;-66
2024/01/27 07:39:37;;;;;;;22.00;7.88;;;-0.50;99.90;;;;;;4989942;28;20026;-65
2024/01/27 07:42:02;;;;;;;20.17;8.52;;;-0.40;99.90;;;;;;4998315;28;20026;-66
2024/01/27 07:44:28;;;;;;;33.47;9.43;;;-0.30;99.90;;;;;;5004795;28;20112;-64
2024/01/27 07:46:53;;;;;;;28.52;10.43;;;-0.20;99.90;;;;;;4998426;28;20046;-65
2024/01/27 07:49:19;;;;;;;28.50;10.60;;;-0.20;99.90;;;;;;4998589;28;20485;-65
2024/01/27 07:51:45;;;;;;;26.75;10.88;;;-0.20;99.90;;;;;;5000418;28;20041;-65
2024/01/27 07:54:11;;;;;;;30.58;9.88;;;-0.10;99.90;;;;;;4994766;28;20029;-65
2024/01/27 07:56:38;;;;;;;22.35;10.25;;;-0.10;99.90;;;;;;4999234;28;20045;-64
2024/01/27 07:59:03;;;;;;;25.63;10.95;;;0.00;99.90;;;;;;5000887;28;20034;-65
2024/01/27 08:01:29;;;;;;;28.15;9.57;;;0.20;99.90;;;;;;4994154;28;20614;-64
2024/01/27 08:03:55;;;;;;;19.83;8.70;;;0.30;99.90;;;;;;4999343;28;20084;-64
2024/01/27 08:06:28;;;;;;;22.45;9.25;;;0.40;99.90;;;;;;4990035;28;20121;-65
2024/01/27 08:08:54;;;;;;;29.75;12.50;;;0.40;99.90;;;;;;5006892;28;20064;-64
2024/01/27 08:11:20;;;;;;;31.10;13.93;;;0.40;99.90;;;;;;5005460;28;20056;-65
2024/01/27 08:13:45;;;;;;;46.25;17.83;;;0.40;99.90;;;;;;5005287;28;20092;-65
2024/01/27 08:16:12;;;;;;;59.08;23.95;;;0.40;99.90;;;;;;5010993;28;20037;-66
2024/01/27 08:18:45;;;;;;;49.95;20.35;;;0.50;99.90;;;;;;5011226;28;20776;-65
2024/01/27 08:21:13;;;;;;;47.78;19.60;;;0.60;99.90;;;;;;4995743;28;20022;-73
2024/01/27 08:23:39;;;;;;;38.67;16.70;;;0.80;99.90;;;;;;5000027;28;20994;-71
2024/01/27 08:26:05;;;;;;;37.92;15.73;;;0.80;99.90;;;;;;5009373;28;20030;-73
2024/01/27 08:28:30;;;;;;;33.25;14.35;;;1.00;99.90;;;;;;5008100;28;20038;-72
2024/01/27 08:30:56;;;;;;;31.00;13.30;;;1.10;99.90;;;;;;5001512;28;20029;-73
2024/01/27 08:33:21;;;;;;;33.95;13.48;;;1.30;99.90;;;;;;4994819;28;20065;-73
2024/01/27 08:35:51;;;;;;;25.63;11.20;;;1.50;99.90;;;;;;5006868;28;20066;-72
2024/01/27 08:38:17;;;;;;;28.88;12.05;;;1.60;99.90;;;;;;5001585;28;20062;-75
2024/01/27 08:40:43;;;;;;;26.13;11.32;;;1.70;99.90;;;;;;5024224;28;20076;-72
2024/01/27 08:43:10;;;;;;;26.35;12.52;;;1.70;99.90;;;;;;5005219;28;20540;-73
2024/01/27 08:45:37;;;;;;;30.52;12.35;;;1.80;99.90;;;;;;5002311;28;20083;-73
2024/01/27 08:48:03;;;;;;;33.78;11.35;;;1.80;99.90;;;;;;4999623;28;20046;-73
2024/01/27 08:50:29;;;;;;;25.73;10.25;;;1.90;99.90;;;;;;4998152;28;20471;-72
2024/01/27 08:52:54;;;;;;;20.33;9.63;;;2.00;99.90;;;;;;5009000;28;20022;-72
2024/01/27 08:55:23;;;;;;;20.63;9.05;;;2.20;99.90;;;;;;5002117;28;20494;-75
2024/01/27 08:57:49;;;;;;;27.08;9.90;;;2.20;99.90;;;;;;5002298;28;20109;-72
2024/01/27 09:00:16;;;;;;;24.33;10.38;;;2.20;99.90;;;;;;5009800;28;20062;-73
2024/01/27 09:02:42;;;;;;;30.30;11.38;;;2.30;99.90;;;;;;5008872;28;20057;-73
2024/01/27 09:05:08;;;;;;;23.85;10.55;;;2.50;99.90;;;;;;5009853;28;20518;-73
2024/01/27 09:07:34;;;;;;;26.58;10.95;;;2.70;99.90;;;;;;5009754;28;20076;-73
2024/01/27 09:10:00;;;;;;;26.58;11.25;;;2.90;99.90;;;;;;5009921;28;20494;-73
2024/01/27 09:12:25;;;;;;;27.67;11.25;;;3.10;99.90;;;;;;5010188;28;20386;-73
2024/01/27 09:14:51;;;;;;;24.88;11.15;;;3.30;99.90;;;;;;5010975;28;20034;-74
2024/01/27 09:17:16;;;;;;;22.38;10.45;;;3.50;99.90;;;;;;5009962;28;20038;-74
2024/01/27 09:19:42;;;;;;;29.48;11.65;;;3.60;99.90;;;;;;5009942;28;20944;-74
2024/01/27 09:22:08;;;;;;;27.27;11.90;;;3.80;99.90;;;;;;5007528;28;20113;-74
2024/01/27 09:24:33;;;;;;;28.48;12.18;;;4.00;99.90;;;;;;5005197;28;20026;-73
2024/01/27 09:26:59;;;;;;;29.27;11.13;;;4.20;99.90;;;;;;5006459;28;20057;-72
2024/01/27 09:29:25;;;;;;;24.23;9.60;;;4.50;99.90;;;;;;5006772;28;20040;-73
2024/01/27 09:31:50;;;;;;;24.55;11.30;;;4.40;99.90;;;;;;5006282;28;20030;-74
2024/01/27 09:34:16;;;;;;;22.98;10.07;;;4.40;99.90;;;;;;5009685;28;20462;-73
2024/01/27 09:36:41;;;;;;;19.92;8.15;;;4.30;99.90;;;;;;5008162;28;20653;-74
2024/01/27 09:39:08;;;;;;;23.27;9.13;;;4.30;99.90;;;;;;5025524;28;20435;-73
2024/01/27 09:41:33;;;;;;;24.35;9.73;;;4.30;99.90;;;;;;4992346;28;20030;-72
2024/01/27 09:44:03;;;;;;;25.80;9.07;;;4.60;99.90;;;;;;4989005;28;20046;-73
2024/01/27 09:46:30;;;;;;;26.48;8.50;;;4.60;99.90;;;;;;4995938;28;20046;-72
2024/01/27 09:48:56;;;;;;;18.85;8.07;;;4.70;99.90;;;;;;5009964;28;20052;-73
2024/01/27 09:51:22;;;;;;;22.98;8.75;;;4.80;99.90;;;;;;5007817;28;20133;-76
2024/01/27 09:53:51;;;;;;;16.15;7.47;;;5.00;99.90;;;;;;5005861;28;20026;-74
2024/01/27 09:56:18;;;;;;;23.73;8.93;;;5.20;99.90;;;;;;4995542;28;20030;-72
2024/01/27 09:58:45;;;;;;;24.60;7.90;;;5.30;99.90;;;;;;4996144;28;20026;-73
2024/01/27 10:01:12;;;;;;;21.00;8.63;;;5.40;99.90;;;;;;5005869;28;20207;-73
2024/01/27 10:03:40;;;;;;;18.80;7.38;;;5.70;99.90;;;;;;5000533;28;20026;-74
2024/01/27 10:06:09;;;;;;;17.73;6.90;;;5.90;99.90;;;;;;5004236;28;20025;-72
2024/01/27 10:08:35;;;;;;;22.83;8.02;;;6.00;99.90;;;;;;4998864;28;20037;-72
2024/01/27 10:11:07;;;;;;;15.18;7.15;;;6.10;99.90;;;;;;5007559;28;20033;-72
2024/01/27 10:13:33;;;;;;;27.50;8.20;;;6.40;99.90;;;;;;5007126;28;20029;-74
2024/01/27 10:16:09;;;;;;;20.15;7.68;;;6.50;99.90;;;;;;5005142;28;20045;-70
2024/01/27 10:18:35;;;;;;;17.23;7.05;;;6.60;99.90;;;;;;5003140;28;20505;-74
2024/01/27 10:21:15;;;;;;;18.85;6.57;;;6.50;99.90;;;;;;5009763;28;20034;-73
2024/01/27 10:23:41;;;;;;;21.17;7.72;;;6.60;99.90;;;;;;5009038;28;20026;-74
2024/01/27 10:26:10;;;;;;;19.95;6.82;;;6.70;99.90;;;;;;5009833;28;20568;-73
2024/01/27 10:28:35;;;;;;;26.13;6.40;;;6.80;99.90;;;;;;5007518;28;20546;-73
2024/01/27 10:31:11;;;;;;;22.90;7.05;;;6.80;99.90;;;;;;5009893;28;20029;-74
2024/01/27 10:33:37;;;;;;;13.18;5.07;;;6.80;99.90;;;;;;5008742;28;20033;-73
2024/01/27 10:36:04;;;;;;;15.48;5.85;;;6.80;99.90;;;;;;5007890;28;20022;-74
2024/01/27 10:38:38;;;;;;;16.80;5.00;;;6.60;99.90;;;;;;5008235;28;20688;-72
2024/01/27 10:41:10;;;;;;;17.25;4.38;;;6.80;99.90;;;;;;5009548;28;20025;-72
2024/01/27 10:43:37;;;;;;;21.63;3.47;;;6.70;99.90;;;;;;5003903;28;20493;-73
2024/01/27 10:46:07;;;;;;;14.82;3.90;;;6.70;99.90;;;;;;5009649;28;20034;-73
2024/01/27 10:48:36;;;;;;;12.40;4.35;;;6.80;99.90;;;;;;5008684;28;20034;-74
2024/01/27 10:51:10;;;;;;;18.55;4.93;;;6.70;99.90;;;;;;5009297;28;20026;-74
2024/01/27 10:53:37;;;;;;;17.55;5.00;;;6.60;99.90;;;;;;5008582;28;20029;-73
2024/01/27 10:56:09;;;;;;;14.00;4.13;;;6.70;99.90;;;;;;5009488;28;20040;-73
2024/01/27 10:58:41;;;;;;;11.52;3.78;;;6.70;99.90;;;;;;5001939;28;20133;-73
2024/01/27 11:01:11;;;;;;;21.75;4.47;;;6.60;99.90;;;;;;5008313;28;20041;-73
2024/01/27 11:03:41;;;;;;;19.70;4.68;;;6.80;99.90;;;;;;5008460;28;20482;-72
2024/01/27 11:06:08;;;;;;;15.90;4.50;;;7.10;99.90;;;;;;5009232;28;20105;-73
2024/01/27 11:08:34;;;;;;;20.50;5.88;;;7.20;99.90;;;;;;5008406;28;20117;-73
2024/01/27 11:11:01;;;;;;;14.70;6.00;;;7.30;99.90;;;;;;5009152;28;20030;-73
2024/01/27 11:13:29;;;;;;;18.05;6.30;;;7.70;99.90;;;;;;5001921;28;20042;-75
2024/01/27 11:15:55;;;;;;;19.08;6.00;;;8.00;99.90;;;;;;4989429;28;20031;-73
2024/01/27 11:18:22;;;;;;;19.02;7.13;;;8.30;99.90;;;;;;5002758;28;20060;-73
2024/01/27 11:20:47;;;;;;;15.43;5.95;;;8.30;99.90;;;;;;5008285;28;20144;-72
2024/01/27 11:23:16;;;;;;;14.32;6.53;;;8.40;99.90;;;;;;5008944;28;20509;-71
2024/01/27 11:25:42;;;;;;;17.80;6.32;;;8.60;99.90;;;;;;5008216;28;20030;-74
2024/01/27 11:28:13;;;;;;;27.15;5.90;;;8.80;99.90;;;;;;5008530;28;20038;-74
2024/01/27 11:30:39;;;;;;;14.90;5.93;;;8.80;99.90;;;;;;5006691;28;20371;-73
2024/01/27 11:33:06;;;;;;;12.88;5.25;;;8.40;99.90;;;;;;5008966;28;20052;-73
2024/01/27 11:35:31;;;;;;;21.50;5.53;;;8.50;99.90;;;;;;5007056;28;20116;-72
2024/01/27 11:37:57;;;;;;;28.30;5.63;;;8.70;99.90;;;;;;5008908;28;20435;-74
2024/01/27 11:40:23;;;;;;;23.33;5.53;;;8.60;99.90;;;;;;5008191;28;20069;-72
2024/01/27 11:43:02;;;;;;;14.23;4.90;;;8.40;99.90;;;;;;5001991;28;20502;-73
2024/01/27 11:45:29;;;;;;;14.27;5.22;;;8.40;99.90;;;;;;5009646;28;20060;-75
2024/01/27 11:47:55;;;;;;;15.48;5.53;;;8.40;99.90;;;;;;5027389;28;20042;-73
2024/01/27 11:50:21;;;;;;;13.23;5.13;;;8.40;99.90;;;;;;5012715;28;20507;-74
2024/01/27 11:52:47;;;;;;;24.50;5.85;;;8.40;99.90;;;;;;5011847;28;20026;-73
2024/01/27 11:55:15;;;;;;;16.45;5.40;;;8.40;99.90;;;;;;5012589;28;20081;-73
2024/01/27 11:57:41;;;;;;;15.23;5.60;;;8.20;99.90;;;;;;5009564;28;20037;-73
2024/01/27 12:00:09;;;;;;;16.10;5.28;;;8.30;99.90;;;;;;5000012;28;20112;-71
2024/01/27 12:02:35;;;;;;;15.35;5.10;;;8.80;99.90;;;;;;5015848;28;20034;-73
2024/01/27 12:05:01;;;;;;;17.65;5.20;;;8.80;99.90;;;;;;5007525;28;20038;-72
2024/01/27 12:07:27;;;;;;;13.35;4.82;;;9.00;99.90;;;;;;4992464;28;20144;-73
2024/01/27 12:09:53;;;;;;;11.68;5.10;;;9.20;99.90;;;;;;4991838;28;20069;-73
2024/01/27 12:12:18;;;;;;;8.35;3.33;;;9.40;99.90;;;;;;4992390;28;20034;-73
2024/01/27 12:14:48;;;;;;;9.73;2.55;;;9.40;99.90;;;;;;5000835;28;20030;-74
2024/01/27 12:17:15;;;;;;;7.95;2.95;;;9.50;99.90;;;;;;5012560;28;20029;-74
2024/01/27 12:19:47;;;;;;;8.60;3.20;;;9.30;99.90;;;;;;5011102;28;20056;-73
2024/01/27 12:22:27;;;;;;;13.05;4.00;;;9.40;99.90;;;;;;5012161;28;20029;-73
2024/01/27 12:24:54;;;;;;;10.37;3.30;;;9.80;99.90;;;;;;5011370;28;20380;-73
2024/01/27 12:27:22;;;;;;;11.18;3.17;;;9.70;99.90;;;;;;5012008;28;20328;-73
2024/01/27 12:29:49;;;;;;;9.10;3.60;;;9.80;99.90;;;;;;5011127;28;20041;-73
2024/01/27 12:32:16;;;;;;;12.88;3.08;;;9.60;99.90;;;;;;5002392;28;20034;-73
2024/01/27 12:34:45;;;;;;;4.43;1.98;;;9.80;99.90;;;;;;4990156;28;20062;-74
2024/01/27 12:37:14;;;;;;;9.90;2.10;;;9.90;99.90;;;;;;4992278;28;20084;-73
2024/01/27 12:39:44;;;;;;;8.85;2.45;;;9.50;99.90;;;;;;4991514;28;20042;-72